Time;durP1;ratioP1;P1;durP2;ratioP2;P2;SDS_P1;SDS_P2;PMS_P1;PMS_P2;Temp;Humidity;BMP_temperature;BMP_pressure;BME280_temperature;BME280_humidity;BME280_pressure;Samples;Min_cycle;Max_cycle;Signal;HPM_P1;HPM_P2
2022/11/19 00:00:41;;;;;;;6.63;4.28;;;1.40;99.90;;;;;;5053054;28;20053;-66
2022/11/19 00:03:06;;;;;;;8.45;4.50;;;1.40;99.90;;;;;;5052978;28;20110;-67
2022/11/19 00:05:40;;;;;;;5.53;3.88;;;1.40;99.90;;;;;;5052793;28;20557;-66
2022/11/19 00:08:06;;;;;;;5.68;3.40;;;1.40;99.90;;;;;;5053527;28;20051;-67
2022/11/19 00:10:36;;;;;;;6.00;3.97;;;1.40;99.90;;;;;;5052958;28;20143;-66
2022/11/19 00:13:03;;;;;;;7.25;4.15;;;2.70;99.90;;;;;;5018628;28;20060;-67
2022/11/19 00:15:29;;;;;;;5.50;3.67;;;1.70;99.90;;;;;;5052826;28;20045;-67
2022/11/19 00:17:59;;;;;;;4.57;3.38;;;1.40;99.90;;;;;;5052576;28;20045;-67
2022/11/19 00:20:25;;;;;;;4.97;3.50;;;1.40;99.90;;;;;;5052829;28;20057;-67
2022/11/19 00:22:53;;;;;;;5.55;3.20;;;1.60;99.90;;;;;;5052896;28;20045;-67
2022/11/19 00:25:20;;;;;;;4.43;2.90;;;1.30;99.90;;;;;;5052538;28;20611;-67
2022/11/19 00:27:46;;;;;;;4.43;3.10;;;1.30;99.90;;;;;;5053385;28;20048;-67
2022/11/19 00:30:12;;;;;;;4.30;2.75;;;1.30;99.90;;;;;;5052603;28;20045;-67
2022/11/19 00:32:38;;;;;;;4.88;2.80;;;1.30;99.90;;;;;;5034823;28;20182;-66
2022/11/19 00:35:04;;;;;;;3.75;2.58;;;2.30;99.90;;;;;;5052902;28;20084;-67
2022/11/19 00:37:30;;;;;;;5.25;3.25;;;1.30;99.90;;;;;;5052572;28;20052;-67
2022/11/19 00:39:55;;;;;;;3.83;2.53;;;1.20;99.90;;;;;;5052657;28;20041;-67
2022/11/19 00:42:21;;;;;;;3.63;2.35;;;1.30;99.90;;;;;;5056030;28;20523;-66
2022/11/19 00:44:47;;;;;;;4.60;2.72;;;1.20;99.90;;;;;;5056394;28;20091;-67
2022/11/19 00:47:13;;;;;;;4.03;2.85;;;1.20;99.90;;;;;;5057252;28;20080;-67
2022/11/19 00:49:38;;;;;;;3.92;2.63;;;1.20;99.90;;;;;;5056562;28;20041;-66
2022/11/19 00:52:04;;;;;;;5.03;2.40;;;1.20;99.90;;;;;;5056387;28;20131;-67
2022/11/19 00:54:30;;;;;;;3.42;2.40;;;1.20;99.90;;;;;;5039399;28;20370;-67
2022/11/19 00:56:56;;;;;;;3.60;2.33;;;1.10;99.90;;;;;;5056127;28;20045;-67
2022/11/19 00:59:21;;;;;;;4.25;2.25;;;1.10;99.90;;;;;;5056103;28;20068;-67
2022/11/19 01:01:47;;;;;;;4.47;2.85;;;1.00;99.90;;;;;;5056035;28;20049;-67
2022/11/19 01:04:13;;;;;;;3.72;2.35;;;2.40;99.90;;;;;;5038287;28;20128;-67
2022/11/19 01:06:39;;;;;;;4.13;2.40;;;1.00;99.90;;;;;;5055929;28;20128;-67
2022/11/19 01:09:05;;;;;;;4.93;2.53;;;0.90;99.90;;;;;;5056571;28;20052;-67
2022/11/19 01:11:32;;;;;;;3.80;2.40;;;1.70;99.90;;;;;;5055985;28;20155;-67
2022/11/19 01:13:59;;;;;;;4.38;2.47;;;0.80;99.90;;;;;;5055862;28;20107;-67
2022/11/19 01:16:32;;;;;;;4.75;2.42;;;0.80;99.90;;;;;;5056402;28;20099;-67
2022/11/19 01:18:58;;;;;;;2.90;2.00;;;0.70;99.90;;;;;;5055837;28;20057;-67
2022/11/19 01:21:27;;;;;;;3.13;2.00;;;0.70;99.90;;;;;;5055559;28;20057;-67
2022/11/19 01:23:54;;;;;;;3.92;2.70;;;1.00;99.90;;;;;;5055529;28;20493;-66
2022/11/19 01:26:20;;;;;;;3.90;2.85;;;0.70;99.90;;;;;;5055713;28;20088;-67
2022/11/19 01:28:46;;;;;;;3.67;2.30;;;1.90;99.90;;;;;;5055688;28;20048;-67
2022/11/19 01:31:21;;;;;;;4.22;2.50;;;0.70;99.90;;;;;;5055758;28;20466;-67
2022/11/19 01:33:47;;;;;;;3.95;2.55;;;0.70;99.90;;;;;;5055559;28;20073;-67
2022/11/19 01:36:25;;;;;;;3.85;2.60;;;2.10;99.90;;;;;;5055445;28;20041;-67
2022/11/19 01:38:51;;;;;;;3.95;2.75;;;0.70;99.90;;;;;;5055603;28;20040;-67
2022/11/19 01:41:20;;;;;;;3.55;2.38;;;0.60;99.90;;;;;;5055368;28;20049;-68
2022/11/19 01:43:51;;;;;;;4.20;2.78;;;1.50;99.90;;;;;;5055155;28;20506;-67
2022/11/19 01:46:19;;;;;;;3.60;2.50;;;1.80;99.90;;;;;;5055162;28;20037;-67
2022/11/19 01:49:11;;;;;;;3.53;2.50;;;0.60;99.90;;;;;;5055134;28;20091;-67
2022/11/19 01:51:44;;;;;;;3.65;2.38;;;0.60;99.90;;;;;;5055488;28;20044;-67
2022/11/19 01:54:30;;;;;;;3.40;2.30;;;0.60;99.90;;;;;;5055713;28;20114;-67
2022/11/19 01:57:00;;;;;;;3.10;2.25;;;0.50;99.90;;;;;;5055889;28;20054;-67
2022/11/19 01:59:28;;;;;;;4.18;2.60;;;0.50;99.90;;;;;;5038412;28;20466;-66
2022/11/19 02:01:55;;;;;;;3.45;2.40;;;1.80;99.90;;;;;;5055071;28;20059;-67
2022/11/19 02:04:22;;;;;;;4.35;2.90;;;0.50;99.90;;;;;;5037424;28;20045;-67
2022/11/19 02:06:47;;;;;;;4.53;2.40;;;0.40;99.90;;;;;;5055004;28;20049;-67
2022/11/19 02:09:13;;;;;;;3.55;2.42;;;1.10;99.90;;;;;;5054954;28;20045;-67
2022/11/19 02:12:13;;;;;;;3.78;2.45;;;0.30;99.90;;;;;;5054932;28;20053;-67
2022/11/19 02:14:43;;;;;;;4.43;3.13;;;0.30;99.90;;;;;;5037455;28;20053;-67
2022/11/19 02:17:16;;;;;;;4.90;2.50;;;0.30;99.90;;;;;;5054764;28;20041;-67
2022/11/19 02:20:02;;;;;;;4.00;2.58;;;1.20;99.90;;;;;;5037124;28;20068;-67
2022/11/19 02:22:34;;;;;;;4.28;2.67;;;0.20;99.90;;;;;;5054759;28;20056;-67
2022/11/19 02:25:11;;;;;;;3.95;2.30;;;0.60;99.90;;;;;;5055088;28;20053;-67
2022/11/19 02:27:54;;;;;;;4.13;2.63;;;0.20;99.90;;;;;;5055344;28;20041;-67
2022/11/19 02:30:20;;;;;;;3.90;2.35;;;0.20;99.90;;;;;;5054655;28;20123;-67
2022/11/19 02:33:08;;;;;;;4.18;2.72;;;0.10;99.90;;;;;;5054484;28;20132;-67
2022/11/19 02:35:43;;;;;;;4.95;2.88;;;0.10;99.90;;;;;;5054430;28;20045;-67
2022/11/19 02:38:30;;;;;;;4.33;2.87;;;0.10;99.90;;;;;;5054925;28;20048;-67
2022/11/19 02:41:32;;;;;;;4.05;2.53;;;0.10;99.90;;;;;;5054910;28;20049;-67
2022/11/19 02:44:57;;;;;;;5.07;3.05;;;0.10;99.90;;;;;;5054636;28;20049;-67
2022/11/19 02:46:41;;;;;;;4.10;2.47;;;0.00;99.90;;;;;;5054364;28;20045;-67
2022/11/19 02:49:09;;;;;;;3.83;2.45;;;0.00;99.90;;;;;;5054109;28;20454;-67
2022/11/19 02:51:34;;;;;;;4.30;2.63;;;0.30;99.90;;;;;;5054162;28;20051;-67
2022/11/19 02:54:03;;;;;;;3.55;2.50;;;0.00;99.90;;;;;;5054099;28;20045;-67
2022/11/19 02:56:52;;;;;;;4.43;2.40;;;0.00;99.90;;;;;;5053964;28;20485;-67
2022/11/19 03:05:02;;;;;;;4.38;2.50;;;-0.10;99.90;;;;;;5053612;28;20064;-67
2022/11/19 03:07:28;;;;;;;3.45;2.40;;;1.00;99.90;;;;;;5036107;28;20068;-67
2022/11/19 03:09:59;;;;;;;3.72;2.15;;;1.30;99.90;;;;;;5054065;28;20056;-67
2022/11/19 03:12:37;;;;;;;3.13;2.03;;;-0.10;99.90;;;;;;5053808;28;20047;-67
2022/11/19 03:18:25;;;;;;;2.50;2.00;;;1.50;99.90;;;;;;5054232;28;20501;-67
2022/11/19 03:21:06;;;;;;;3.83;2.40;;;-0.20;99.90;;;;;;5054385;28;20382;-67
2022/11/19 03:23:39;;;;;;;3.50;2.22;;;-0.20;99.90;;;;;;5054399;28;20402;-67
2022/11/19 03:26:23;;;;;;;2.83;2.05;;;-0.20;99.90;;;;;;5054074;28;20381;-67
2022/11/19 03:28:51;;;;;;;3.60;2.45;;;1.50;99.90;;;;;;5054092;28;20045;-67
2022/11/19 03:31:19;;;;;;;4.40;2.40;;;1.40;99.90;;;;;;5053470;28;20087;-67
2022/11/19 03:33:48;;;;;;;3.72;2.28;;;-0.30;99.90;;;;;;5053489;28;20106;-67
2022/11/19 03:36:23;;;;;;;3.28;2.17;;;0.40;99.90;;;;;;5035519;28;20374;-67
2022/11/19 03:38:54;;;;;;;3.47;2.13;;;-0.30;99.90;;;;;;5053414;28;20064;-67
2022/11/19 03:41:23;;;;;;;4.70;2.60;;;-0.30;99.90;;;;;;5052986;28;20551;-67
2022/11/19 03:44:02;;;;;;;3.63;2.10;;;0.40;99.90;;;;;;5053174;28;20059;-67
2022/11/19 03:46:29;;;;;;;3.90;2.28;;;-0.30;99.90;;;;;;5053244;28;20124;-67
2022/11/19 03:48:57;;;;;;;3.53;2.45;;;-0.40;99.90;;;;;;5053643;28;20041;-67
2022/11/19 03:51:55;;;;;;;3.05;1.95;;;-0.40;99.90;;;;;;5035365;28;20127;-67
2022/11/19 03:54:20;;;;;;;;;;;0.30;99.90;;;;;;5037098;28;20509;-67
2022/11/19 03:56:47;;;;;;;2.93;2.10;;;1.10;99.90;;;;;;5036262;28;19927;-67
2022/11/19 03:59:13;;;;;;;3.88;2.30;;;-0.40;99.90;;;;;;5053045;28;20571;-67
2022/11/19 04:01:39;;;;;;;4.15;2.25;;;-0.40;99.90;;;;;;5053618;28;20049;-67
2022/11/19 04:06:49;;;;;;;3.15;1.98;;;-0.20;99.90;;;;;;5053297;28;20099;-67
2022/11/19 04:09:15;;;;;;;4.20;2.53;;;0.80;99.90;;;;;;5053651;28;20051;-67
2022/11/19 04:11:42;;;;;;;3.92;2.55;;;-0.50;99.90;;;;;;5052984;28;20476;-67
2022/11/19 04:14:08;;;;;;;3.75;2.20;;;-0.20;99.90;;;;;;5052926;28;20053;-67
2022/11/19 04:16:34;;;;;;;3.85;2.28;;;-0.50;99.90;;;;;;5056453;28;20037;-67
2022/11/19 04:19:00;;;;;;;4.43;2.50;;;1.10;99.90;;;;;;5057271;28;20044;-67
2022/11/19 04:21:25;;;;;;;3.38;2.20;;;-0.60;99.90;;;;;;5056981;28;20128;-67
2022/11/19 04:23:51;;;;;;;4.50;2.58;;;-0.60;99.90;;;;;;5056997;28;20385;-67
2022/11/19 04:26:17;;;;;;;3.60;2.42;;;-0.60;99.90;;;;;;5039582;28;20210;-67
2022/11/19 04:28:42;;;;;;;3.70;2.75;;;-0.60;99.90;;;;;;5056888;28;20541;-67
2022/11/19 04:31:08;;;;;;;3.92;2.42;;;-0.60;99.90;;;;;;5057338;28;20123;-67
2022/11/19 04:33:34;;;;;;;3.80;2.60;;;0.60;99.90;;;;;;5056727;28;20041;-67
2022/11/19 04:35:59;;;;;;;4.10;2.30;;;-0.70;99.90;;;;;;5056631;28;20051;-67
2022/11/19 04:38:25;;;;;;;3.65;2.58;;;-0.20;99.90;;;;;;5056664;28;20049;-67
2022/11/19 04:40:50;;;;;;;3.90;2.63;;;-0.20;99.90;;;;;;5056928;28;20051;-67
2022/11/19 04:43:16;;;;;;;4.68;2.30;;;-0.70;99.90;;;;;;5056777;28;20048;-67
2022/11/19 04:45:42;;;;;;;3.85;2.67;;;-0.70;99.90;;;;;;5056948;28;20052;-67
2022/11/19 04:48:07;;;;;;;4.68;2.60;;;-0.70;99.90;;;;;;5056737;28;20044;-67
2022/11/19 04:50:33;;;;;;;3.65;2.25;;;-0.70;99.90;;;;;;5056738;28;20085;-67
2022/11/19 04:52:59;;;;;;;4.35;2.47;;;1.10;99.90;;;;;;5056924;28;20053;-67
2022/11/19 04:55:24;;;;;;;4.53;2.72;;;-0.70;99.90;;;;;;5056354;28;20051;-68
2022/11/19 04:57:50;;;;;;;4.35;2.40;;;0.80;99.90;;;;;;5056257;28;20033;-67
2022/11/19 05:00:16;;;;;;;3.85;2.58;;;-0.70;99.90;;;;;;5056202;28;20079;-67
2022/11/19 05:02:42;;;;;;;6.13;2.92;;;-0.70;99.90;;;;;;5056518;28;20068;-68
2022/11/19 05:05:08;;;;;;;3.75;2.53;;;0.30;99.90;;;;;;5056105;28;20049;-68
2022/11/19 05:07:34;;;;;;;4.78;2.75;;;-0.70;99.90;;;;;;5057099;28;20111;-68
2022/11/19 05:10:00;;;;;;;4.22;2.50;;;-0.20;99.90;;;;;;5038326;28;20477;-68
2022/11/19 05:12:25;;;;;;;3.65;2.65;;;-0.80;99.90;;;;;;5056034;28;20114;-68
2022/11/19 05:14:51;;;;;;;5.07;3.17;;;-0.80;99.90;;;;;;5055623;28;20053;-68
2022/11/19 05:17:17;;;;;;;4.45;2.92;;;-0.80;99.90;;;;;;5056373;28;20136;-68
2022/11/19 05:19:43;;;;;;;4.13;2.80;;;0.10;99.90;;;;;;5055696;28;20059;-68
2022/11/19 05:22:08;;;;;;;4.75;2.78;;;-0.80;99.90;;;;;;5038098;28;20045;-69
2022/11/19 05:24:34;;;;;;;4.28;2.75;;;-0.80;99.90;;;;;;5055708;28;20098;-68
2022/11/19 05:27:00;;;;;;;4.95;3.10;;;-0.90;99.90;;;;;;5055063;28;20071;-68
2022/11/19 05:29:25;;;;;;;4.28;2.88;;;0.90;99.90;;;;;;5056223;28;20474;-68
2022/11/19 05:31:51;;;;;;;4.95;3.38;;;-0.90;99.90;;;;;;5055740;28;20444;-68
2022/11/19 05:34:17;;;;;;;5.07;3.08;;;-0.90;99.90;;;;;;5055646;28;20510;-68
2022/11/19 05:36:42;;;;;;;4.95;3.20;;;0.30;99.90;;;;;;5038143;28;20116;-68
2022/11/19 05:39:08;;;;;;;5.80;3.40;;;-0.90;99.90;;;;;;5037888;28;20474;-68
2022/11/19 05:41:34;;;;;;;5.15;3.28;;;-0.90;99.90;;;;;;5056061;28;20045;-68
2022/11/19 05:43:59;;;;;;;5.07;3.20;;;-0.90;99.90;;;;;;5038173;28;20057;-68
2022/11/19 05:46:25;;;;;;;6.07;3.75;;;-0.90;99.90;;;;;;5055340;28;20033;-68
2022/11/19 05:48:51;;;;;;;5.10;3.53;;;-1.00;99.90;;;;;;5055327;28;20059;-68
2022/11/19 05:51:16;;;;;;;5.03;3.58;;;-1.00;99.90;;;;;;5038018;28;20040;-68
2022/11/19 05:53:42;;;;;;;4.93;3.55;;;0.40;99.90;;;;;;5055777;28;20489;-68
2022/11/19 05:56:08;;;;;;;6.38;3.97;;;0.70;99.90;;;;;;5055167;28;20037;-68
2022/11/19 05:58:34;;;;;;;5.65;3.80;;;-1.00;99.90;;;;;;5037611;28;20428;-68
2022/11/19 06:01:00;;;;;;;6.22;4.65;;;-1.00;99.90;;;;;;5055205;28;20091;-68
2022/11/19 06:03:25;;;;;;;5.13;3.80;;;-1.00;99.90;;;;;;5055091;28;20160;-68
2022/11/19 06:05:51;;;;;;;6.35;4.40;;;0.40;99.90;;;;;;5055018;28;20091;-68
2022/11/19 06:08:17;;;;;;;6.28;4.10;;;-1.10;99.90;;;;;;5020854;28;20088;-68
2022/11/19 06:10:43;;;;;;;6.63;4.43;;;-1.10;99.90;;;;;;5054891;28;20045;-68
2022/11/19 06:13:09;;;;;;;5.60;4.00;;;-1.10;99.90;;;;;;5054968;28;20095;-68
2022/11/19 06:15:35;;;;;;;6.40;4.47;;;-0.60;99.90;;;;;;5055149;28;20390;-68
2022/11/19 06:18:01;;;;;;;7.35;4.45;;;-1.10;99.90;;;;;;5054709;28;20077;-68
2022/11/19 06:20:27;;;;;;;6.25;4.15;;;-1.10;99.90;;;;;;5054771;28;20060;-68
2022/11/19 06:22:52;;;;;;;6.45;4.22;;;-1.20;99.90;;;;;;5036904;28;20041;-68
2022/11/19 06:25:18;;;;;;;6.05;4.00;;;-1.20;99.90;;;;;;5054664;28;20045;-68
2022/11/19 06:27:44;;;;;;;6.78;4.30;;;-1.20;99.90;;;;;;5054629;28;20037;-68
2022/11/19 06:30:10;;;;;;;7.07;4.10;;;-1.20;99.90;;;;;;5054552;28;20080;-68
2022/11/19 06:32:36;;;;;;;6.68;3.97;;;-1.20;99.90;;;;;;5037475;28;20056;-68
2022/11/19 06:35:01;;;;;;;5.68;3.88;;;-0.80;99.90;;;;;;5054499;28;20041;-68
2022/11/19 06:37:27;;;;;;;7.82;4.32;;;0.20;99.90;;;;;;5054333;28;20102;-68
2022/11/19 06:39:54;;;;;;;6.28;4.07;;;-1.30;99.90;;;;;;5053131;28;20045;-68
2022/11/19 06:42:35;;;;;;;6.22;4.28;;;-1.30;99.90;;;;;;5054355;28;20048;-68
2022/11/19 06:45:12;;;;;;;7.20;3.97;;;-1.20;99.90;;;;;;5054260;28;20049;-68
2022/11/19 06:47:39;;;;;;;6.63;4.25;;;0.30;99.90;;;;;;5054213;28;20048;-68
2022/11/19 06:50:06;;;;;;;6.38;4.13;;;-1.30;99.90;;;;;;5054389;28;20056;-68
2022/11/19 06:52:32;;;;;;;7.20;4.35;;;-1.30;99.90;;;;;;5054004;28;20056;-68
2022/11/19 06:54:57;;;;;;;6.10;4.53;;;-1.30;99.90;;;;;;5053251;28;20049;-68
2022/11/19 06:57:24;;;;;;;5.60;4.22;;;-1.40;99.90;;;;;;5053517;28;20060;-68
2022/11/19 06:59:49;;;;;;;6.18;4.07;;;-0.30;99.90;;;;;;5053756;28;20052;-69
2022/11/19 07:02:15;;;;;;;7.50;4.53;;;-1.40;99.90;;;;;;5053688;28;20045;-68
2022/11/19 07:04:41;;;;;;;7.03;4.53;;;-1.40;99.90;;;;;;5053825;28;20041;-68
2022/11/19 07:07:08;;;;;;;7.38;4.30;;;-1.40;99.90;;;;;;5053802;28;20158;-68
2022/11/19 07:09:33;;;;;;;6.30;4.20;;;-1.40;99.90;;;;;;5053828;28;20397;-68
2022/11/19 07:11:59;;;;;;;7.75;5.22;;;-0.10;99.90;;;;;;5054065;28;20123;-68
2022/11/19 07:14:25;;;;;;;6.25;4.38;;;-1.40;99.90;;;;;;5053810;28;20486;-68
2022/11/19 07:16:50;;;;;;;7.65;4.93;;;-1.40;99.90;;;;;;5053622;28;20359;-68
2022/11/19 07:19:16;;;;;;;6.72;4.35;;;-1.40;99.90;;;;;;5053341;28;20116;-68
2022/11/19 07:21:42;;;;;;;6.25;3.95;;;-1.40;99.90;;;;;;5054148;28;20114;-68
2022/11/19 07:24:09;;;;;;;6.60;4.25;;;-1.40;99.90;;;;;;5054381;28;20045;-68
2022/11/19 07:26:35;;;;;;;5.70;4.15;;;0.20;99.90;;;;;;5053519;28;20052;-68
2022/11/19 07:29:04;;;;;;;6.65;4.50;;;-1.10;99.90;;;;;;5053529;28;20128;-69
2022/11/19 07:31:30;;;;;;;6.22;4.13;;;-1.40;99.90;;;;;;5053413;28;20044;-68
2022/11/19 07:33:56;;;;;;;6.22;4.35;;;0.80;99.90;;;;;;5053374;28;20092;-69
2022/11/19 07:36:22;;;;;;;6.13;4.13;;;-0.80;99.90;;;;;;5035884;28;20120;-69
2022/11/19 07:38:49;;;;;;;7.32;4.30;;;-1.30;99.90;;;;;;5053448;28;20049;-69
2022/11/19 07:43:59;;;;;;;7.32;4.53;;;-1.30;99.90;;;;;;5053324;28;20044;-69
2022/11/19 07:46:25;;;;;;;6.28;3.97;;;0.80;99.90;;;;;;5052840;28;20120;-69
2022/11/19 07:48:53;;;;;;;7.00;3.85;;;-1.30;99.90;;;;;;5053215;28;20044;-70
2022/11/19 07:51:18;;;;;;;6.57;4.18;;;-1.30;99.90;;;;;;5052870;28;20057;-65
2022/11/19 07:53:44;;;;;;;7.97;4.57;;;-1.20;99.90;;;;;;5053489;28;20135;-66
2022/11/19 07:56:10;;;;;;;6.25;4.32;;;-1.20;99.90;;;;;;5053099;28;20465;-65
2022/11/19 07:58:35;;;;;;;5.43;3.75;;;-1.20;99.90;;;;;;5053075;28;20051;-65
2022/11/19 08:01:13;;;;;;;5.15;3.72;;;0.30;99.90;;;;;;5053100;28;20099;-65
2022/11/19 08:03:41;;;;;;;5.95;4.35;;;-1.10;99.90;;;;;;5053289;28;20048;-65
2022/11/19 08:06:07;;;;;;;6.95;4.68;;;-1.10;99.90;;;;;;5053340;28;20089;-65
2022/11/19 08:08:33;;;;;;;6.10;4.07;;;-1.10;99.90;;;;;;5052934;28;20216;-65
2022/11/19 08:11:04;;;;;;;5.78;4.25;;;-1.10;99.90;;;;;;5053348;28;20132;-65
2022/11/19 08:13:29;;;;;;;5.75;4.40;;;-0.90;99.90;;;;;;5052951;28;20128;-65
2022/11/19 08:16:03;;;;;;;6.35;3.83;;;-1.00;99.90;;;;;;5052725;28;20454;-65
2022/11/19 08:18:30;;;;;;;5.75;4.22;;;-0.90;99.90;;;;;;5035701;28;20118;-65
2022/11/19 08:21:01;;;;;;;6.35;4.32;;;-0.90;99.90;;;;;;5053231;28;20061;-65
2022/11/19 08:23:26;;;;;;;6.72;3.90;;;-0.80;99.90;;;;;;5035918;28;20437;-65
2022/11/19 08:25:52;;;;;;;5.43;3.50;;;-0.80;99.90;;;;;;5052878;28;20128;-65
2022/11/19 08:28:18;;;;;;;6.82;4.95;;;-0.80;99.90;;;;;;5052817;28;20094;-65
2022/11/19 08:30:45;;;;;;;5.82;3.97;;;-0.70;99.90;;;;;;5052778;28;20045;-65
2022/11/19 08:33:11;;;;;;;7.15;4.45;;;-0.70;99.90;;;;;;5052995;28;20390;-65
2022/11/19 08:35:37;;;;;;;7.03;4.07;;;0.50;99.90;;;;;;5053063;28;20174;-65
2022/11/19 08:38:03;;;;;;;6.53;4.47;;;0.70;99.90;;;;;;5052666;28;20045;-65
2022/11/19 08:40:28;;;;;;;7.18;4.43;;;-0.60;99.90;;;;;;5034946;28;20052;-65
2022/11/19 08:43:00;;;;;;;7.10;4.55;;;-0.50;99.90;;;;;;5052650;28;20045;-65
2022/11/19 08:45:33;;;;;;;7.63;4.70;;;-0.50;99.90;;;;;;5052694;28;20076;-65
2022/11/19 08:48:01;;;;;;;6.38;4.28;;;-0.40;99.90;;;;;;5053005;28;20033;-65
2022/11/19 08:50:28;;;;;;;6.13;4.28;;;-0.40;99.90;;;;;;5034957;28;20123;-65
2022/11/19 08:53:02;;;;;;;6.28;4.30;;;-0.40;99.90;;;;;;5052665;28;20052;-65
2022/11/19 08:55:29;;;;;;;6.43;4.18;;;0.40;99.90;;;;;;5052620;28;20135;-65
2022/11/19 08:58:00;;;;;;;6.95;4.57;;;-0.20;99.90;;;;;;5052656;28;20037;-65
2022/11/19 09:00:26;;;;;;;7.13;4.43;;;1.30;99.90;;;;;;5035221;28;20063;-65
2022/11/19 09:02:51;;;;;;;6.35;4.30;;;1.10;99.90;;;;;;5055344;28;20040;-65
2022/11/19 09:05:17;;;;;;;5.70;4.07;;;-0.10;99.90;;;;;;5056787;28;20474;-65
2022/11/19 09:07:43;;;;;;;6.50;4.10;;;0.50;99.90;;;;;;5056378;28;20402;-65
2022/11/19 09:10:09;;;;;;;7.47;4.35;;;0.10;99.90;;;;;;5055434;28;20045;-71
2022/11/19 09:12:35;;;;;;;6.25;4.32;;;0.20;99.90;;;;;;5055008;28;20084;-71
2022/11/19 09:15:01;;;;;;;6.53;4.25;;;0.30;99.90;;;;;;5038342;28;20080;-71
2022/11/19 09:17:26;;;;;;;9.57;4.40;;;0.40;99.90;;;;;;5055728;28;20470;-71
2022/11/19 09:19:52;;;;;;;6.95;4.53;;;0.50;99.90;;;;;;5055414;28;20095;-71
2022/11/19 09:22:18;;;;;;;6.82;4.35;;;0.80;99.90;;;;;;5055935;28;20061;-71
2022/11/19 09:24:43;;;;;;;7.13;4.50;;;0.60;99.90;;;;;;5055993;28;20099;-70
2022/11/19 09:27:09;;;;;;;7.32;4.60;;;0.70;99.90;;;;;;5055305;28;20492;-74
2022/11/19 09:29:35;;;;;;;6.53;4.90;;;0.70;99.90;;;;;;5038329;28;20374;-74
2022/11/19 09:32:00;;;;;;;7.13;4.78;;;0.80;99.90;;;;;;5055484;28;20049;-73
2022/11/19 09:34:26;;;;;;;6.30;4.90;;;0.90;99.90;;;;;;5055678;28;20041;-74
2022/11/19 09:36:52;;;;;;;6.78;4.78;;;1.10;99.90;;;;;;5037678;28;20098;-74
2022/11/19 09:39:17;;;;;;;6.55;4.13;;;1.10;99.90;;;;;;5055191;28;20183;-72
2022/11/19 09:42:03;;;;;;;7.53;4.20;;;1.20;99.90;;;;;;5055863;28;20049;-72
2022/11/19 09:44:40;;;;;;;6.55;4.03;;;1.30;99.90;;;;;;5056222;28;20388;-72
2022/11/19 09:47:40;;;;;;;5.65;4.18;;;1.40;99.90;;;;;;5055501;28;20501;-71
2022/11/19 09:50:21;;;;;;;4.95;3.75;;;1.70;99.90;;;;;;5054754;28;20060;-71
2022/11/19 09:52:54;;;;;;;5.80;4.40;;;2.00;99.90;;;;;;5055321;28;20051;-72
2022/11/19 09:55:41;;;;;;;4.93;3.50;;;2.30;99.90;;;;;;5055659;28;20053;-71
2022/11/19 09:58:13;;;;;;;5.13;3.70;;;2.70;99.90;;;;;;5055151;28;20040;-70
2022/11/19 10:00:39;;;;;;;5.47;3.80;;;3.40;99.90;;;;;;5055540;28;20045;-68
2022/11/19 10:03:13;;;;;;;5.30;3.88;;;4.00;99.90;;;;;;5055014;28;20045;-68
2022/11/19 10:06:10;;;;;;;5.13;3.75;;;4.10;99.90;;;;;;5055147;28;20088;-68
2022/11/19 10:09:04;;;;;;;5.27;3.80;;;4.40;99.90;;;;;;5054661;28;20513;-68
2022/11/19 10:11:40;;;;;;;5.95;4.10;;;5.10;99.90;;;;;;5055066;28;20337;-68
2022/11/19 10:14:06;;;;;;;5.40;4.18;;;5.60;99.90;;;;;;5054775;28;20116;-68
2022/11/19 10:16:52;;;;;;;4.65;3.25;;;6.20;99.90;;;;;;5054674;28;20545;-74
2022/11/19 10:19:18;;;;;;;5.18;3.45;;;6.90;99.90;;;;;;5054598;28;20436;-69
2022/11/19 10:21:50;;;;;;;5.00;3.75;;;7.20;99.90;;;;;;5055355;28;20128;-68
2022/11/19 10:24:48;;;;;;;5.80;3.70;;;7.60;99.90;;;;;;5054731;28;20136;-68
2022/11/19 10:27:22;;;;;;;4.68;3.80;;;8.00;99.90;;;;;;5023336;28;20056;-71
2022/11/19 10:29:53;;;;;;;4.90;3.50;;;8.30;99.90;;;;;;5055164;28;20060;-71
2022/11/19 10:32:34;;;;;;;5.45;4.18;;;8.50;99.90;;;;;;5055154;28;20397;-70
2022/11/19 10:35:07;;;;;;;4.68;3.63;;;8.80;99.90;;;;;;5020274;28;20049;-69
2022/11/19 10:37:37;;;;;;;4.72;3.53;;;9.10;99.90;;;;;;5054494;28;20048;-68
2022/11/19 10:40:14;;;;;;;4.38;3.53;;;9.30;99.90;;;;;;5054953;28;20055;-68
2022/11/19 10:42:59;;;;;;;4.18;3.35;;;9.30;99.90;;;;;;5054246;28;20049;-68
2022/11/19 10:45:27;;;;;;;5.07;3.75;;;9.40;99.90;;;;;;5054720;28;20045;-69
2022/11/19 10:48:02;;;;;;;5.35;3.38;;;9.50;99.90;;;;;;5036876;28;20076;-69
2022/11/19 10:50:28;;;;;;;4.95;3.50;;;9.60;99.90;;;;;;5054250;28;20435;-69
2022/11/19 10:53:01;;;;;;;4.93;4.00;;;10.00;99.90;;;;;;5053795;28;20127;-69
2022/11/19 10:55:57;;;;;;;4.35;3.72;;;9.70;99.90;;;;;;5054102;28;20059;-69
2022/11/19 10:58:36;;;;;;;4.57;3.33;;;9.50;99.90;;;;;;5052980;28;20059;-69
2022/11/19 11:01:04;;;;;;;3.65;2.88;;;8.90;99.90;;;;;;5054528;28;20048;-69
2022/11/19 11:03:42;;;;;;;4.10;2.80;;;8.00;99.90;;;;;;5036298;28;20094;-70
2022/11/19 11:06:09;;;;;;;4.45;2.90;;;7.10;99.90;;;;;;5053789;28;20129;-71
2022/11/19 11:08:53;;;;;;;3.88;2.97;;;6.30;99.90;;;;;;5035992;28;20045;-69
2022/11/19 11:14:50;;;;;;;4.32;3.17;;;5.60;99.90;;;;;;5054199;28;20044;-69
2022/11/19 11:16:59;;;;;;;4.53;3.20;;;4.60;99.90;;;;;;5053534;28;20052;-70
2022/11/19 11:19:25;;;;;;;4.00;3.00;;;4.10;99.90;;;;;;5053454;28;20409;-69
2022/11/19 11:21:53;;;;;;;4.68;3.15;;;3.90;99.90;;;;;;5054408;28;20128;-69
2022/11/19 11:24:20;;;;;;;4.90;3.20;;;4.70;99.90;;;;;;5053098;28;20084;-68
2022/11/19 11:26:45;;;;;;;4.28;3.17;;;3.50;99.90;;;;;;5036451;28;20413;-68
2022/11/19 11:29:11;;;;;;;4.85;3.33;;;3.80;99.90;;;;;;5053696;28;20045;-68
2022/11/19 11:31:46;;;;;;;4.50;3.42;;;4.70;99.90;;;;;;5053586;28;20378;-68
2022/11/19 11:34:41;;;;;;;4.75;3.38;;;3.20;99.90;;;;;;5053415;28;20124;-71
2022/11/19 11:37:10;;;;;;;4.22;3.40;;;3.10;99.90;;;;;;5053459;28;20049;-71
2022/11/19 11:39:38;;;;;;;4.57;3.13;;;3.60;99.90;;;;;;5053190;28;20391;-70
2022/11/19 11:42:10;;;;;;;5.32;3.20;;;3.50;99.90;;;;;;5053137;28;20090;-70
2022/11/19 11:44:46;;;;;;;4.10;2.92;;;3.00;99.90;;;;;;5053237;28;20052;-65
2022/11/19 11:47:21;;;;;;;4.82;3.38;;;3.90;99.90;;;;;;5053176;28;20477;-65
2022/11/19 11:50:02;;;;;;;4.82;3.38;;;2.90;99.90;;;;;;5052965;28;20079;-64
2022/11/19 11:52:52;;;;;;;4.13;2.90;;;3.30;99.90;;;;;;5053092;28;20044;-66
2022/11/19 11:55:24;;;;;;;4.95;3.55;;;3.30;99.90;;;;;;5053135;28;20045;-66
2022/11/19 11:57:59;;;;;;;5.43;3.58;;;2.80;99.90;;;;;;5053036;28;20045;-65
2022/11/19 12:00:40;;;;;;;3.97;2.95;;;2.80;99.90;;;;;;5053002;28;20045;-66
2022/11/19 12:03:18;;;;;;;4.55;3.42;;;2.80;99.90;;;;;;5052999;28;20129;-66
2022/11/19 12:05:52;;;;;;;4.60;3.30;;;2.70;99.90;;;;;;5035897;28;20386;-66
2022/11/19 12:08:50;;;;;;;4.00;2.70;;;2.80;99.90;;;;;;5053745;28;20412;-66
2022/11/19 12:11:15;;;;;;;6.25;3.55;;;2.70;99.90;;;;;;5052631;28;20056;-71
2022/11/19 12:13:55;;;;;;;6.13;3.72;;;2.70;99.90;;;;;;5052922;28;20385;-71
2022/11/19 12:16:47;;;;;;;5.28;3.75;;;2.70;99.90;;;;;;5052637;28;20037;-70
2022/11/19 12:19:46;;;;;;;4.30;3.15;;;2.70;99.90;;;;;;5052844;28;20068;-70
2022/11/19 12:22:30;;;;;;;5.72;3.78;;;2.80;99.90;;;;;;5052798;28;20053;-70
2022/11/19 12:25:23;;;;;;;5.32;3.28;;;4.40;99.90;;;;;;5052952;28;20399;-70
2022/11/19 12:28:19;;;;;;;4.88;3.00;;;2.90;99.90;;;;;;5052723;28;20045;-70
2022/11/19 12:31:13;;;;;;;5.00;3.37;;;3.00;99.90;;;;;;5052585;28;20426;-70
2022/11/19 12:34:02;;;;;;;4.70;3.13;;;3.00;99.90;;;;;;5053389;28;20337;-70
2022/11/19 12:36:46;;;;;;;3.60;2.60;;;3.00;99.90;;;;;;5052780;28;20045;-70
2022/11/19 12:39:50;;;;;;;3.78;2.60;;;3.00;99.90;;;;;;5038876;28;20077;-70
2022/11/19 12:42:30;;;;;;;4.30;3.00;;;3.00;99.90;;;;;;5056418;28;20049;-70
2022/11/19 12:45:09;;;;;;;5.65;3.63;;;3.00;99.90;;;;;;5056576;28;20501;-70
2022/11/19 12:48:09;;;;;;;4.20;2.47;;;3.40;99.90;;;;;;5056695;28;20098;-70
2022/11/19 12:51:11;;;;;;;5.00;2.80;;;3.00;99.90;;;;;;5056310;28;20045;-70
2022/11/19 12:53:51;;;;;;;4.25;2.58;;;3.00;99.90;;;;;;5056311;28;20506;-70
2022/11/19 12:56:39;;;;;;;3.50;2.60;;;3.00;99.90;;;;;;5039225;28;20052;-71
2022/11/19 12:59:14;;;;;;;4.53;2.63;;;3.10;99.90;;;;;;5057160;28;20045;-71
2022/11/19 13:01:44;;;;;;;4.65;2.83;;;4.40;99.90;;;;;;5056475;28;20044;-71
2022/11/19 13:04:29;;;;;;;4.60;2.50;;;3.20;99.90;;;;;;5056102;28;20056;-70
2022/11/19 13:07:12;;;;;;;3.50;2.53;;;3.10;99.90;;;;;;5038364;28;20445;-70
2022/11/19 13:09:43;;;;;;;4.63;2.83;;;3.10;99.90;;;;;;5055847;28;20512;-71
2022/11/19 13:12:23;;;;;;;4.25;2.63;;;4.00;99.90;;;;;;5055535;28;20463;-70
2022/11/19 13:15:03;;;;;;;3.75;2.60;;;3.10;99.90;;;;;;5055948;28;20049;-70
2022/11/19 13:17:39;;;;;;;4.88;2.67;;;3.10;99.90;;;;;;5055758;28;20112;-71
2022/11/19 13:20:31;;;;;;;4.22;2.55;;;3.20;99.90;;;;;;5055866;28;20449;-70
2022/11/19 13:23:01;;;;;;;4.47;2.42;;;3.20;99.90;;;;;;5030542;28;20513;-71
2022/11/19 13:25:29;;;;;;;4.35;2.88;;;3.50;99.90;;;;;;5055961;28;20136;-70
2022/11/19 13:27:57;;;;;;;4.03;2.50;;;3.20;99.90;;;;;;5055945;28;20045;-75
2022/11/19 13:30:28;;;;;;;4.10;2.53;;;3.20;99.90;;;;;;5055631;28;20090;-68